createdAt,value
2019-04-21T00:01:15.002Z,5.07
2019-04-21T00:03:52.201Z,4.63
2019-04-21T00:06:45.611Z,5.30
2019-04-21T00:11:41.057Z,4.30
2019-04-21T00:14:11.431Z,4.83
2019-04-21T00:16:34.763Z,4.40
2019-04-21T00:19:17.345Z,4.60
2019-04-21T00:21:47.833Z,4.07
2019-04-21T00:24:30.489Z,4.47
2019-04-21T00:27:07.737Z,4.40
2019-04-21T00:29:45.624Z,4.30
2019-04-21T00:32:06.929Z,3.70
2019-04-21T00:34:23.828Z,4.43
2019-04-21T00:37:05.793Z,4.67
2019-04-21T00:39:57.775Z,4.10
2019-04-21T00:42:18.218Z,4.40
2019-04-21T00:44:44.361Z,4.03
2019-04-21T00:47:29.169Z,4.00
2019-04-21T00:49:57.927Z,3.63
2019-04-21T00:53:29.673Z,3.60
2019-04-21T00:55:44.375Z,4.30
2019-04-21T00:58:18.342Z,4.40
2019-04-21T01:00:46.196Z,4.10
2019-04-21T01:03:23.168Z,4.20
2019-04-21T01:05:51.718Z,4.47
2019-04-21T01:08:19.920Z,4.30
2019-04-21T01:10:43.585Z,3.87
2019-04-21T01:13:29.444Z,4.17
2019-04-21T01:16:00.811Z,4.10
2019-04-21T01:18:27.636Z,3.60
2019-04-21T01:20:39.684Z,4.00
2019-04-21T01:23:10.544Z,3.50
2019-04-21T01:25:49.969Z,3.73
2019-04-21T01:28:29.280Z,3.70
2019-04-21T01:31:05.033Z,4.47
2019-04-21T01:33:42.932Z,4.23
2019-04-21T01:36:09.780Z,3.87
2019-04-21T01:38:48.189Z,4.77
2019-04-21T01:41:21.001Z,5.23
2019-04-21T01:43:45.198Z,4.60
2019-04-21T01:46:15.151Z,4.67
2019-04-21T01:48:47.987Z,4.30
2019-04-21T01:51:23.499Z,4.60
2019-04-21T01:54:22.418Z,3.90
2019-04-21T01:57:15.707Z,5.07
2019-04-21T01:59:40.217Z,4.07
2019-04-21T02:02:18.384Z,4.10
2019-04-21T02:04:57.597Z,4.67
2019-04-21T02:07:27.106Z,4.43
2019-04-21T02:10:00.767Z,5.37
2019-04-21T02:12:36.064Z,4.90
2019-04-21T02:15:06.344Z,4.80
2019-04-21T02:17:34.150Z,4.10
2019-04-21T02:19:59.994Z,5.03
2019-04-21T02:25:18.213Z,4.67
2019-04-21T02:27:47.386Z,4.80
2019-04-21T02:30:27.863Z,4.90
2019-04-21T02:33:03.864Z,5.37
2019-04-21T02:38:09.041Z,5.67
2019-04-21T02:40:38.957Z,5.37
2019-04-21T02:45:41.021Z,5.92
2019-04-21T02:53:21.270Z,5.40
2019-04-21T02:55:43.660Z,5.30
2019-04-21T03:01:29.172Z,4.13
2019-04-21T03:06:51.749Z,4.40
2019-04-21T03:09:24.367Z,3.73
2019-04-21T03:11:56.448Z,3.50
2019-04-21T03:14:50.479Z,4.17
2019-04-21T03:16:55.635Z,4.03
2019-04-21T03:19:41.704Z,3.97
2019-04-21T03:22:07.221Z,4.03
2019-04-21T03:25:00.914Z,4.10
2019-04-21T03:27:17.544Z,3.90
2019-04-21T03:29:42.523Z,3.87
2019-04-21T03:37:17.239Z,4.23
2019-04-21T03:42:27.169Z,3.90
2019-04-21T03:44:53.225Z,4.60
2019-04-21T04:01:02.386Z,4.97
2019-04-21T04:06:20.811Z,4.50
2019-04-21T04:14:18.497Z,5.07
2019-04-21T04:16:37.232Z,4.60
2019-04-21T04:24:22.263Z,4.77
2019-04-21T04:31:43.905Z,5.10
2019-04-21T04:34:22.773Z,4.33
2019-04-21T04:37:12.642Z,5.33
2019-04-21T04:42:39.005Z,5.47
2019-04-21T04:45:14.999Z,5.27
2019-04-21T04:47:44.654Z,5.00
2019-04-21T04:50:15.630Z,4.97
2019-04-21T04:55:18.981Z,5.70
2019-04-21T05:00:25.753Z,4.70
2019-04-21T05:05:36.212Z,4.73
2019-04-21T05:08:08.309Z,5.67
2019-04-21T05:10:43.110Z,5.20
2019-04-21T05:13:01.177Z,5.90
2019-04-21T05:15:28.575Z,5.13
2019-04-21T05:18:05.427Z,5.43
2019-04-21T05:20:29.920Z,5.43
2019-04-21T05:22:58.207Z,10.63
2019-04-21T05:25:31.150Z,6.87
2019-04-21T05:28:01.031Z,5.20
2019-04-21T05:30:52.047Z,4.87
2019-04-21T05:33:38.097Z,4.70
2019-04-21T05:36:15.540Z,5.57
2019-04-21T05:39:07.646Z,6.07
2019-04-21T05:41:31.363Z,5.10
2019-04-21T05:44:09.862Z,5.03
2019-04-21T05:46:49.428Z,5.20
2019-04-21T05:49:22.211Z,5.70
2019-04-21T05:51:55.548Z,5.93
2019-04-21T05:54:45.639Z,6.17
2019-04-21T05:57:06.603Z,5.37
2019-04-21T05:59:40.148Z,5.37
2019-04-21T06:02:23.629Z,5.27
2019-04-21T06:09:56.449Z,6.00
2019-04-21T06:12:21.185Z,5.73
2019-04-21T06:15:00.949Z,5.27
2019-04-21T06:20:02.849Z,4.13
2019-04-21T06:22:33.224Z,5.57
2019-04-21T06:25:37.849Z,5.10
2019-04-21T06:27:40.304Z,5.67
2019-04-21T06:30:13.639Z,5.43
2019-04-21T06:32:50.588Z,4.70
2019-04-21T06:35:48.494Z,6.20
2019-04-21T06:38:05.719Z,5.63
2019-04-21T06:40:42.271Z,5.50
2019-04-21T06:43:24.637Z,5.67
2019-04-21T06:45:50.714Z,5.27
2019-04-21T06:48:34.243Z,5.57
2019-04-21T06:51:09.009Z,5.37
2019-04-21T06:53:50.236Z,6.13
2019-04-21T06:56:15.470Z,5.33
2019-04-21T06:58:45.008Z,5.67
2019-04-21T07:01:15.487Z,5.83
2019-04-21T07:03:58.935Z,6.20
2019-04-21T07:06:24.592Z,9.27
2019-04-21T07:09:03.232Z,12.03
2019-04-21T07:11:25.328Z,5.30
2019-04-21T07:14:19.569Z,5.13
2019-04-21T07:16:38.441Z,5.17
2019-04-21T07:19:17.524Z,5.40
2019-04-21T07:21:43.028Z,5.25
2019-04-21T07:24:13.850Z,6.10
2019-04-21T07:26:45.981Z,5.80
2019-04-21T07:29:20.664Z,6.40
2019-04-21T07:34:30.558Z,6.07
2019-04-21T07:36:56.074Z,5.50
2019-04-21T07:39:28.120Z,13.73
2019-04-21T07:41:53.987Z,6.53
2019-04-21T07:44:28.723Z,5.43
2019-04-21T07:46:57.360Z,5.70
2019-04-21T07:50:00.914Z,5.87
2019-04-21T07:53:00.986Z,6.20
2019-04-21T07:58:02.845Z,5.67
2019-04-21T08:00:45.484Z,5.50
2019-04-21T08:03:14.170Z,5.75
2019-04-21T08:05:47.114Z,5.50
2019-04-21T08:08:14.316Z,5.90
2019-04-21T08:10:45.517Z,5.60
2019-04-21T08:13:28.863Z,5.08
2019-04-21T08:15:53.775Z,5.95
2019-04-21T08:18:28.794Z,5.40
2019-04-21T08:20:54.802Z,6.03
2019-04-21T08:23:31.509Z,5.85
2019-04-21T08:26:04.721Z,5.30
2019-04-21T08:28:49.544Z,6.03
2019-04-21T08:31:14.625Z,5.87
2019-04-21T08:33:56.084Z,5.47
2019-04-21T08:36:25.538Z,6.15
2019-04-21T08:38:54.426Z,7.62
2019-04-21T08:41:28.085Z,8.50
2019-04-21T08:44:01.785Z,10.63
2019-04-21T08:46:40.850Z,5.90
2019-04-21T08:49:11.972Z,5.58
2019-04-21T08:51:47.330Z,6.20
2019-04-21T08:54:16.107Z,5.65
2019-04-21T08:57:07.837Z,5.50
2019-04-21T08:59:58.670Z,5.67
2019-04-21T09:02:35.014Z,5.30
2019-04-21T09:05:05.256Z,5.85
2019-04-21T09:07:39.438Z,5.50
2019-04-21T09:10:12.645Z,5.78
2019-04-21T09:12:41.764Z,4.95
2019-04-21T09:15:13.902Z,5.40
2019-04-21T09:17:39.527Z,6.05
2019-04-21T09:20:24.910Z,5.53
2019-04-21T09:22:47.817Z,5.58
2019-04-21T09:25:30.365Z,5.87
2019-04-21T09:27:55.256Z,5.20
2019-04-21T09:30:10.919Z,5.15
2019-04-21T09:32:42.511Z,5.58
2019-04-21T09:35:16.560Z,5.15
2019-04-21T09:37:54.576Z,5.50
2019-04-21T09:40:27.378Z,7.33
2019-04-21T09:42:57.491Z,5.30
2019-04-21T09:45:24.593Z,5.00
2019-04-21T09:48:03.016Z,5.35
2019-04-21T09:50:27.915Z,5.10
2019-04-21T09:53:10.764Z,4.55
2019-04-21T09:55:41.537Z,4.87
2019-04-21T09:58:14.761Z,6.25
2019-04-21T10:00:47.642Z,4.87
2019-04-21T10:03:12.431Z,4.20
2019-04-21T10:05:41.683Z,4.08
2019-04-21T10:08:12.570Z,4.35
2019-04-21T10:10:44.455Z,4.83
2019-04-21T10:13:15.412Z,5.30
2019-04-21T10:15:48.563Z,4.87
2019-04-21T10:18:21.533Z,4.65
2019-04-21T10:20:52.431Z,4.47
2019-04-21T10:23:23.313Z,4.55
2019-04-21T10:25:54.681Z,4.67
2019-04-21T10:28:26.900Z,4.70
2019-04-21T10:30:58.545Z,4.42
2019-04-21T10:33:30.340Z,4.75
2019-04-21T10:36:02.241Z,3.92
2019-04-21T10:38:40.072Z,4.65
2019-04-21T10:41:05.535Z,4.75
2019-04-21T10:43:37.448Z,4.78
2019-04-21T10:46:08.800Z,4.62
2019-04-21T10:48:41.067Z,4.47
2019-04-21T10:51:13.015Z,4.40
2019-04-21T10:53:48.139Z,4.00
2019-04-21T10:56:27.214Z,4.40
2019-04-21T10:58:52.279Z,4.55
2019-04-21T11:01:31.522Z,5.08
2019-04-21T11:04:36.717Z,4.87
2019-04-21T11:07:27.527Z,3.85
2019-04-21T11:09:56.093Z,4.70
2019-04-21T11:12:27.835Z,4.78
2019-04-21T11:14:59.099Z,4.50
2019-04-21T11:17:32.241Z,5.62
2019-04-21T11:20:04.667Z,5.95
2019-04-21T11:22:37.322Z,4.50
2019-04-21T11:25:09.138Z,4.25
2019-04-21T11:27:40.788Z,4.75
2019-04-21T11:30:11.757Z,4.70
2019-04-21T11:32:44.915Z,4.72
2019-04-21T11:35:16.858Z,4.78
2019-04-21T11:37:48.394Z,4.37
2019-04-21T11:40:21.555Z,5.33
2019-04-21T11:42:51.805Z,4.87
2019-04-21T11:45:30.569Z,4.72
2019-04-21T11:48:32.387Z,4.72
2019-04-21T11:51:04.728Z,4.50
2019-04-21T11:53:36.890Z,5.60
2019-04-21T11:56:08.990Z,4.55
2019-04-21T11:58:39.982Z,4.90
2019-04-21T12:01:11.852Z,5.00
2019-04-21T12:03:42.699Z,5.20
2019-04-21T12:06:13.537Z,5.72
2019-04-21T12:08:49.018Z,4.87
2019-04-21T12:11:17.760Z,4.83
2019-04-21T12:13:49.687Z,4.62
2019-04-21T12:16:21.166Z,4.75
2019-04-21T12:18:52.437Z,4.40
2019-04-21T12:21:23.424Z,5.22
2019-04-21T12:23:54.459Z,5.25
2019-04-21T12:26:26.400Z,4.92
2019-04-21T12:28:57.654Z,4.70
2019-04-21T12:31:57.207Z,4.12
2019-04-21T12:34:30.098Z,4.65
2019-04-21T12:37:01.293Z,5.30
2019-04-21T12:39:32.733Z,5.60
2019-04-21T12:42:04.731Z,4.50
2019-04-21T12:44:37.068Z,4.80
2019-04-21T12:47:08.206Z,4.42
2019-04-21T12:49:39.814Z,5.03
2019-04-21T12:52:11.625Z,5.08
2019-04-21T12:54:43.821Z,4.75
2019-04-21T12:57:15.118Z,4.70
2019-04-21T12:59:46.676Z,4.45
2019-04-21T13:02:17.866Z,4.80
2019-04-21T13:04:49.737Z,4.83
2019-04-21T13:07:21.637Z,4.10
2019-04-21T13:09:52.695Z,4.87
2019-04-21T13:12:24.785Z,4.05
2019-04-21T13:14:57.634Z,3.37
2019-04-21T13:17:28.085Z,4.25
2019-04-21T13:19:59.134Z,4.50
2019-04-21T13:22:30.070Z,4.28
2019-04-21T13:25:02.264Z,4.92
2019-04-21T13:27:34.590Z,4.50
2019-04-21T13:30:06.471Z,4.65
2019-04-21T13:32:37.578Z,3.90
2019-04-21T13:35:08.820Z,4.72
2019-04-21T13:37:39.945Z,4.10
2019-04-21T13:40:56.967Z,4.12
2019-04-21T13:43:17.177Z,3.58
2019-04-21T13:45:47.986Z,4.00
2019-04-21T13:48:18.998Z,3.80
2019-04-21T13:50:51.120Z,4.42
2019-04-21T13:53:22.767Z,3.87
2019-04-21T13:55:53.560Z,3.83
2019-04-21T13:58:24.577Z,4.20
2019-04-21T14:00:56.076Z,3.40
2019-04-21T14:03:27.229Z,3.90
2019-04-21T14:05:58.334Z,3.60
2019-04-21T14:08:49.140Z,3.60
2019-04-21T14:11:19.909Z,3.70
2019-04-21T14:13:52.002Z,3.83
2019-04-21T14:16:24.503Z,3.70
2019-04-21T14:18:55.247Z,3.33
2019-04-21T14:21:27.241Z,3.37
2019-04-21T14:23:59.462Z,3.50
2019-04-21T14:26:30.272Z,2.87
2019-04-21T14:29:01.575Z,3.30
2019-04-21T14:31:32.770Z,3.30
2019-04-21T14:34:03.902Z,3.33
2019-04-21T14:36:34.944Z,3.27
2019-04-21T14:39:10.590Z,3.35
2019-04-21T14:41:42.205Z,3.00
2019-04-21T14:44:13.297Z,2.92
2019-04-21T14:46:53.299Z,2.90
2019-04-21T14:49:31.088Z,2.80
2019-04-21T14:52:19.113Z,2.90
2019-04-21T14:55:14.309Z,2.67
2019-04-21T14:57:45.244Z,2.95
2019-04-21T15:00:19.020Z,3.20
2019-04-21T15:02:49.927Z,3.12
2019-04-21T15:05:21.727Z,2.47
2019-04-21T15:07:53.203Z,2.92
2019-04-21T15:10:27.754Z,2.50
2019-04-21T15:12:56.896Z,2.72
2019-04-21T15:15:27.946Z,2.25
2019-04-21T15:17:59.840Z,2.60
2019-04-21T15:20:30.976Z,2.95
2019-04-21T15:23:02.107Z,2.30
2019-04-21T15:25:34.416Z,2.17
2019-04-21T15:28:05.528Z,2.20
2019-04-21T15:30:36.676Z,2.42
2019-04-21T15:33:08.590Z,2.30
2019-04-21T15:35:40.617Z,2.30
2019-04-21T15:38:11.861Z,2.42
2019-04-21T15:40:50.515Z,2.02
2019-04-21T15:43:16.153Z,2.70
2019-04-21T15:45:46.882Z,2.40
2019-04-21T15:48:18.221Z,2.50
2019-04-21T15:50:50.345Z,2.98
2019-04-21T15:53:23.580Z,2.60
2019-04-21T15:56:11.044Z,2.30
2019-04-21T15:58:56.785Z,2.05
2019-04-21T16:01:38.867Z,3.05
2019-04-21T16:04:10.699Z,2.12
2019-04-21T16:06:41.653Z,2.33
2019-04-21T16:09:19.855Z,2.10
2019-04-21T16:11:46.104Z,2.20
2019-04-21T16:14:16.913Z,2.10
2019-04-21T16:16:49.451Z,2.33
2019-04-21T16:19:20.472Z,2.40
2019-04-21T16:21:52.520Z,2.20
2019-04-21T16:24:25.217Z,2.10
2019-04-21T16:26:56.576Z,2.35
2019-04-21T16:29:27.570Z,2.33
2019-04-21T16:31:59.638Z,2.12
2019-04-21T16:34:40.138Z,2.30
2019-04-21T16:37:03.630Z,2.37
2019-04-21T16:39:37.980Z,2.10
2019-04-21T16:42:08.562Z,1.82
2019-04-21T16:44:40.986Z,2.20
2019-04-21T16:47:11.780Z,2.22
2019-04-21T16:49:43.497Z,2.60
2019-04-21T16:52:27.992Z,2.25
2019-04-21T16:55:19.120Z,2.20
2019-04-21T16:58:04.273Z,2.33
2019-04-21T17:00:38.706Z,2.67
2019-04-21T17:03:00.742Z,2.80
2019-04-21T17:05:32.215Z,2.12
2019-04-21T17:08:04.064Z,2.65
2019-04-21T17:10:35.000Z,2.60
2019-04-21T17:13:06.708Z,2.17
2019-04-21T17:15:56.688Z,2.17
2019-04-21T17:18:28.265Z,2.45
2019-04-21T17:20:47.448Z,2.20
2019-04-21T17:23:13.639Z,2.45
2019-04-21T17:25:45.038Z,2.75
2019-04-21T17:28:15.698Z,2.55
2019-04-21T17:30:46.331Z,2.80
2019-04-21T17:33:22.680Z,2.40
2019-04-21T17:35:49.181Z,1.90
2019-04-21T17:38:21.855Z,2.05
2019-04-21T17:40:52.211Z,2.40
2019-04-21T17:43:23.729Z,2.25
2019-04-21T17:45:55.180Z,2.40
2019-04-21T17:48:27.017Z,2.00
2019-04-21T17:51:07.489Z,2.50
2019-04-21T17:53:55.341Z,2.50
2019-04-21T17:56:55.183Z,2.55
2019-04-21T17:59:16.376Z,2.33
2019-04-21T18:01:48.434Z,2.52
2019-04-21T18:04:21.220Z,2.67
2019-04-21T18:07:20.598Z,2.60
2019-04-21T18:10:00.963Z,2.77
2019-04-21T18:12:32.294Z,2.55
2019-04-21T18:14:56.260Z,2.90
2019-04-21T18:17:18.505Z,3.40
2019-04-21T18:19:51.717Z,3.33
2019-04-21T18:22:44.300Z,2.60
2019-04-21T18:25:28.159Z,30.27
2019-04-21T18:27:50.409Z,20.07
2019-04-21T18:31:16.523Z,3.60
2019-04-21T18:34:02.189Z,3.27
2019-04-21T18:36:34.815Z,3.50
2019-04-21T18:39:34.017Z,5.37
2019-04-21T18:42:18.845Z,3.95
2019-04-21T18:45:27.859Z,3.92
2019-04-21T18:47:57.079Z,3.97
2019-04-21T18:50:41.702Z,3.90
2019-04-21T18:53:24.495Z,3.60
2019-04-21T18:55:47.136Z,3.77
2019-04-21T18:58:15.721Z,14.73
2019-04-21T19:00:48.607Z,38.50
2019-04-21T19:03:27.294Z,28.90
2019-04-21T19:05:58.277Z,9.98
2019-04-21T19:08:46.583Z,5.70
2019-04-21T19:11:19.017Z,4.83
2019-04-21T19:14:22.491Z,4.47
2019-04-21T19:16:49.790Z,4.47
2019-04-21T19:19:34.089Z,5.15
2019-04-21T19:21:40.458Z,4.80
2019-04-21T19:24:24.328Z,4.80
2019-04-21T19:27:00.475Z,5.08
2019-04-21T19:31:54.650Z,6.13
2019-04-21T19:34:16.481Z,5.35
2019-04-21T19:36:49.568Z,5.63
2019-04-21T19:39:27.136Z,4.60
2019-04-21T19:42:00.743Z,4.53
2019-04-21T19:44:40.481Z,4.58
2019-04-21T19:47:10.437Z,5.37
2019-04-21T19:49:45.496Z,4.47
2019-04-21T19:52:03.941Z,5.30
2019-04-21T19:54:35.878Z,6.15
2019-04-21T19:57:01.078Z,5.67
2019-04-21T19:59:40.536Z,4.63
2019-04-21T20:02:06.787Z,5.77
2019-04-21T20:04:43.893Z,4.70
2019-04-21T20:07:28.986Z,5.10
2019-04-21T20:10:11.678Z,6.63
2019-04-21T20:12:39.833Z,5.40
2019-04-21T20:15:20.339Z,4.97
2019-04-21T20:17:42.657Z,5.42
2019-04-21T20:20:00.361Z,4.90
2019-04-21T20:22:36.819Z,5.53
2019-04-21T20:25:09.870Z,19.87
2019-04-21T20:27:45.525Z,10.70
2019-04-21T20:30:26.062Z,7.13
2019-04-21T20:33:05.888Z,6.28
2019-04-21T20:35:38.233Z,5.00
2019-04-21T20:38:01.992Z,5.20
2019-04-21T20:40:32.998Z,4.50
2019-04-21T20:43:13.432Z,4.17
2019-04-21T20:45:45.576Z,5.37
2019-04-21T20:48:09.414Z,22.90
2019-04-21T20:50:41.942Z,27.00
2019-04-21T20:53:25.137Z,6.17
2019-04-21T20:55:48.505Z,5.57
2019-04-21T20:58:23.981Z,4.20
2019-04-21T21:01:20.300Z,5.60
2019-04-21T21:03:35.245Z,5.97
2019-04-21T21:05:58.569Z,5.00
2019-04-21T21:08:38.842Z,5.63
2019-04-21T21:11:02.371Z,5.73
2019-04-21T21:13:42.647Z,5.07
2019-04-21T21:19:04.728Z,5.03
2019-04-21T21:21:16.119Z,5.37
2019-04-21T21:23:52.702Z,5.07
2019-04-21T21:26:25.829Z,4.90
2019-04-21T21:28:54.069Z,4.70
2019-04-21T21:31:35.619Z,4.70
2019-04-21T21:34:15.319Z,5.33
2019-04-21T21:36:31.539Z,5.03
2019-04-21T21:39:09.149Z,5.00
2019-04-21T21:41:29.858Z,4.80
2019-04-21T21:44:02.778Z,4.93
2019-04-21T21:46:42.964Z,4.63
2019-04-21T21:49:07.462Z,4.87
2019-04-21T21:51:45.085Z,5.22
2019-04-21T21:54:09.610Z,4.63
2019-04-21T21:56:40.881Z,4.93
2019-04-21T21:59:20.136Z,4.40
2019-04-21T22:01:50.678Z,4.13
2019-04-21T22:04:25.932Z,4.77
2019-04-21T22:06:58.470Z,4.67
2019-04-21T22:09:24.249Z,4.27
2019-04-21T22:12:00.518Z,4.20
2019-04-21T22:14:35.438Z,4.37
2019-04-21T22:17:17.509Z,5.57
2019-04-21T22:20:00.294Z,4.93
2019-04-21T22:22:23.315Z,4.30
2019-04-21T22:24:50.699Z,4.23
2019-04-21T22:27:12.891Z,4.37
2019-04-21T22:29:49.233Z,4.50
2019-04-21T22:32:21.541Z,4.23
2019-04-21T22:34:54.818Z,3.50
2019-04-21T22:37:39.294Z,3.80
2019-04-21T22:40:08.562Z,4.00
2019-04-21T22:42:33.210Z,4.00
2019-04-21T22:45:01.431Z,4.23
2019-04-21T22:47:36.062Z,4.03
2019-04-21T22:50:06.453Z,3.67
2019-04-21T22:52:37.537Z,4.62
2019-04-21T22:55:17.107Z,4.33
2019-04-21T22:57:47.859Z,3.93
2019-04-21T23:00:17.413Z,3.67
2019-04-21T23:02:54.904Z,3.63
2019-04-21T23:05:28.272Z,3.57
2019-04-21T23:07:58.625Z,3.80
2019-04-21T23:10:27.443Z,3.93
2019-04-21T23:13:05.663Z,3.50
2019-04-21T23:15:39.486Z,4.30
2019-04-21T23:18:22.048Z,3.67
2019-04-21T23:20:53.657Z,3.60
2019-04-21T23:23:29.740Z,3.70
2019-04-21T23:25:53.343Z,3.37
2019-04-21T23:28:30.448Z,3.73
2019-04-21T23:31:00.777Z,3.93
2019-04-21T23:33:19.555Z,3.43
2019-04-21T23:35:49.545Z,3.43
2019-04-21T23:38:26.606Z,3.97
2019-04-21T23:40:57.856Z,4.10
2019-04-21T23:43:27.750Z,3.10
2019-04-21T23:45:57.280Z,3.97
2019-04-21T23:48:39.216Z,3.60
2019-04-21T23:51:13.909Z,3.70
2019-04-21T23:53:33.335Z,3.50
2019-04-21T23:56:13.420Z,3.50
2019-04-21T23:58:45.817Z,3.07
